sensor_id;sensor_type;location;lat;lon;timestamp;pressure;altitude;pressure_sealevel;temperature;humidity
8286;BME280;4181;43.416;24.598;2023-04-02T00:07:58;98949.53;;;13.39;100.00
8286;BME280;4181;43.416;24.598;2023-04-02T00:10:44;98952.84;;;13.36;100.00
8286;BME280;4181;43.416;24.598;2023-04-02T00:15:37;98945.72;;;13.35;100.00
8286;BME280;4181;43.416;24.598;2023-04-02T00:18:05;98947.31;;;13.41;100.00
8286;BME280;4181;43.416;24.598;2023-04-02T00:20:35;98944.72;;;13.31;100.00
8286;BME280;4181;43.416;24.598;2023-04-02T00:23:03;98944.41;;;13.33;100.00
8286;BME280;4181;43.416;24.598;2023-04-02T00:25:36;98937.03;;;13.33;100.00
8286;BME280;4181;43.416;24.598;2023-04-02T00:28:11;98951.75;;;13.37;100.00
8286;BME280;4181;43.416;24.598;2023-04-02T00:30:37;98944.13;;;13.34;100.00
8286;BME280;4181;43.416;24.598;2023-04-02T00:33:02;98937.97;;;13.42;100.00
8286;BME280;4181;43.416;24.598;2023-04-02T00:35:28;98942.75;;;13.50;100.00
8286;BME280;4181;43.416;24.598;2023-04-02T00:37:55;98941.88;;;13.55;100.00
8286;BME280;4181;43.416;24.598;2023-04-02T00:40:29;98953.13;;;13.53;100.00
8286;BME280;4181;43.416;24.598;2023-04-02T00:42:58;98953.22;;;13.48;100.00
8286;BME280;4181;43.416;24.598;2023-04-02T00:45:33;98948.75;;;13.52;100.00
8286;BME280;4181;43.416;24.598;2023-04-02T00:48:13;98957.56;;;13.49;100.00
8286;BME280;4181;43.416;24.598;2023-04-02T00:50:43;98954.84;;;13.49;100.00
8286;BME280;4181;43.416;24.598;2023-04-02T00:53:15;98960.63;;;13.48;100.00
8286;BME280;4181;43.416;24.598;2023-04-02T00:55:43;98959.50;;;13.49;100.00
8286;BME280;4181;43.416;24.598;2023-04-02T00:58:33;98950.47;;;13.48;100.00
8286;BME280;4181;43.416;24.598;2023-04-02T01:01:00;98958.00;;;13.56;100.00
8286;BME280;4181;43.416;24.598;2023-04-02T01:03:34;98953.13;;;13.53;100.00
8286;BME280;4181;43.416;24.598;2023-04-02T01:06:06;98966.53;;;13.55;100.00
8286;BME280;4181;43.416;24.598;2023-04-02T01:14:02;98944.78;;;13.45;100.00
8286;BME280;4181;43.416;24.598;2023-04-02T01:22:04;98970.28;;;13.59;100.00
8286;BME280;4181;43.416;24.598;2023-04-02T01:24:33;98976.22;;;13.47;100.00
8286;BME280;4181;43.416;24.598;2023-04-02T01:29:47;98972.19;;;13.45;100.00
8286;BME280;4181;43.416;24.598;2023-04-02T01:32:17;98972.59;;;13.52;100.00
8286;BME280;4181;43.416;24.598;2023-04-02T01:34:48;98984.75;;;13.46;100.00
8286;BME280;4181;43.416;24.598;2023-04-02T01:37:54;98987.19;;;13.47;100.00
8286;BME280;4181;43.416;24.598;2023-04-02T01:40:58;98986.59;;;13.50;100.00
8286;BME280;4181;43.416;24.598;2023-04-02T01:43:54;98990.63;;;13.39;100.00
8286;BME280;4181;43.416;24.598;2023-04-02T01:46:25;98995.41;;;13.47;100.00
8286;BME280;4181;43.416;24.598;2023-04-02T01:48:55;98987.34;;;13.37;100.00
8286;BME280;4181;43.416;24.598;2023-04-02T01:51:34;98991.22;;;13.36;100.00
8286;BME280;4181;43.416;24.598;2023-04-02T01:54:02;98994.84;;;13.32;100.00
8286;BME280;4181;43.416;24.598;2023-04-02T01:56:29;98999.59;;;13.26;100.00
8286;BME280;4181;43.416;24.598;2023-04-02T01:58:58;99000.09;;;13.28;100.00
8286;BME280;4181;43.416;24.598;2023-04-02T02:01:50;98991.50;;;13.16;100.00
8286;BME280;4181;43.416;24.598;2023-04-02T02:04:14;98997.28;;;13.15;100.00
8286;BME280;4181;43.416;24.598;2023-04-02T02:06:41;99004.59;;;13.19;100.00
8286;BME280;4181;43.416;24.598;2023-04-02T02:09:13;99001.28;;;13.22;100.00
8286;BME280;4181;43.416;24.598;2023-04-02T02:11:41;99001.28;;;13.22;100.00
8286;BME280;4181;43.416;24.598;2023-04-02T02:14:16;99004.38;;;13.34;100.00
8286;BME280;4181;43.416;24.598;2023-04-02T02:16:44;99000.09;;;13.28;100.00
8286;BME280;4181;43.416;24.598;2023-04-02T02:21:53;99004.16;;;13.31;100.00
8286;BME280;4181;43.416;24.598;2023-04-02T02:24:26;99001.13;;;13.32;100.00
8286;BME280;4181;43.416;24.598;2023-04-02T02:29:30;98999.13;;;13.38;100.00
8286;BME280;4181;43.416;24.598;2023-04-02T02:32:00;98998.69;;;13.31;100.00
8286;BME280;4181;43.416;24.598;2023-04-02T02:34:33;98996.69;;;13.36;100.00
8286;BME280;4181;43.416;24.598;2023-04-02T02:37:07;98985.44;;;13.38;100.00
8286;BME280;4181;43.416;24.598;2023-04-02T02:39:40;98981.28;;;13.40;100.00
8286;BME280;4181;43.416;24.598;2023-04-02T02:42:17;98983.81;;;13.37;100.00
8286;BME280;4181;43.416;24.598;2023-04-02T02:44:48;99000.91;;;13.29;100.00
8286;BME280;4181;43.416;24.598;2023-04-02T02:47:25;99001.50;;;13.44;100.00
8286;BME280;4181;43.416;24.598;2023-04-02T02:49:55;98984.84;;;13.41;100.00
8286;BME280;4181;43.416;24.598;2023-04-02T02:52:26;98988.63;;;13.45;100.00
8286;BME280;4181;43.416;24.598;2023-04-02T02:54:56;98998.31;;;13.37;100.00
8286;BME280;4181;43.416;24.598;2023-04-02T02:57:26;98991.66;;;13.43;100.00
8286;BME280;4181;43.416;24.598;2023-04-02T02:59:55;98980.03;;;13.33;100.00
8286;BME280;4181;43.416;24.598;2023-04-02T03:02:23;98989.94;;;13.29;100.00
8286;BME280;4181;43.416;24.598;2023-04-02T03:04:51;99001.88;;;13.38;100.00
8286;BME280;4181;43.416;24.598;2023-04-02T03:07:19;98994.56;;;13.33;100.00
8286;BME280;4181;43.416;24.598;2023-04-02T03:12:38;99006.38;;;13.29;100.00
8286;BME280;4181;43.416;24.598;2023-04-02T03:15:41;99000.09;;;13.28;100.00
8286;BME280;4181;43.416;24.598;2023-04-02T03:18:22;98999.13;;;13.19;100.00
8286;BME280;4181;43.416;24.598;2023-04-02T03:20:56;99013.28;;;13.26;100.00
8286;BME280;4181;43.416;24.598;2023-04-02T03:23:27;99011.06;;;13.28;100.00
8286;BME280;4181;43.416;24.598;2023-04-02T03:26:03;99014.22;;;13.35;100.00
8286;BME280;4181;43.416;24.598;2023-04-02T03:28:34;99001.94;;;13.33;100.00
8286;BME280;4181;43.416;24.598;2023-04-02T03:31:09;99012.97;;;13.28;100.00
8286;BME280;4181;43.416;24.598;2023-04-02T03:33:44;99018.97;;;13.30;100.00
8286;BME280;4181;43.416;24.598;2023-04-02T03:36:21;99017.56;;;13.32;100.00
8286;BME280;4181;43.416;24.598;2023-04-02T03:38:54;99026.44;;;13.24;100.00
8286;BME280;4181;43.416;24.598;2023-04-02T03:44:20;99024.47;;;13.30;100.00
8286;BME280;4181;43.416;24.598;2023-04-02T03:47:00;99027.03;;;13.21;100.00
8286;BME280;4181;43.416;24.598;2023-04-02T03:49:30;99031.09;;;13.24;100.00
8286;BME280;4181;43.416;24.598;2023-04-02T03:52:29;99042.97;;;13.38;100.00
8286;BME280;4181;43.416;24.598;2023-04-02T03:54:56;99028.06;;;13.25;100.00
8286;BME280;4181;43.416;24.598;2023-04-02T03:57:32;99034.81;;;13.33;100.00
8286;BME280;4181;43.416;24.598;2023-04-02T04:02:43;99034.91;;;13.46;100.00
8286;BME280;4181;43.416;24.598;2023-04-02T04:05:29;99035.63;;;13.33;100.00
8286;BME280;4181;43.416;24.598;2023-04-02T04:08:00;99032.22;;;13.41;100.00
8286;BME280;4181;43.416;24.598;2023-04-02T04:10:28;99037.34;;;13.48;100.00
8286;BME280;4181;43.416;24.598;2023-04-02T04:13:01;99048.06;;;13.44;100.00
8286;BME280;4181;43.416;24.598;2023-04-02T04:16:03;99045.41;;;13.39;100.00
8286;BME280;4181;43.416;24.598;2023-04-02T04:21:34;99060.66;;;13.45;100.00
8286;BME280;4181;43.416;24.598;2023-04-02T04:24:15;99062.81;;;13.48;100.00
8286;BME280;4181;43.416;24.598;2023-04-02T04:26:47;99057.50;;;13.38;100.00
8286;BME280;4181;43.416;24.598;2023-04-02T04:30:01;99072.44;;;13.46;100.00
8286;BME280;4181;43.416;24.598;2023-04-02T04:32:34;99083.75;;;13.39;100.00
8286;BME280;4181;43.416;24.598;2023-04-02T04:37:47;99075.09;;;13.51;100.00
8286;BME280;4181;43.416;24.598;2023-04-02T04:40:21;99074.72;;;13.57;100.00
8286;BME280;4181;43.416;24.598;2023-04-02T04:42:51;99073.34;;;13.60;100.00
8286;BME280;4181;43.416;24.598;2023-04-02T04:45:49;99077.09;;;13.64;100.00
8286;BME280;4181;43.416;24.598;2023-04-02T04:48:30;99079.84;;;13.64;100.00
8286;BME280;4181;43.416;24.598;2023-04-02T04:51:01;99086.75;;;13.61;100.00
8286;BME280;4181;43.416;24.598;2023-04-02T04:53:29;99087.75;;;13.65;100.00
8286;BME280;4181;43.416;24.598;2023-04-02T04:56:03;99091.03;;;13.67;100.00
8286;BME280;4181;43.416;24.598;2023-04-02T04:58:34;99098.16;;;13.68;100.00
8286;BME280;4181;43.416;24.598;2023-04-02T05:01:20;99088.50;;;13.71;100.00
8286;BME280;4181;43.416;24.598;2023-04-02T05:03:59;99094.13;;;13.79;100.00
8286;BME280;4181;43.416;24.598;2023-04-02T05:06:34;99106.34;;;13.87;100.00
8286;BME280;4181;43.416;24.598;2023-04-02T05:09:17;99098.25;;;13.95;100.00
8286;BME280;4181;43.416;24.598;2023-04-02T05:12:15;99113.09;;;13.94;100.00
8286;BME280;4181;43.416;24.598;2023-04-02T05:18:07;99125.28;;;13.88;100.00
8286;BME280;4181;43.416;24.598;2023-04-02T05:20:42;99130.69;;;13.93;100.00
8286;BME280;4181;43.416;24.598;2023-04-02T05:23:33;99124.06;;;13.94;100.00
8286;BME280;4181;43.416;24.598;2023-04-02T05:28:43;99125.84;;;14.04;100.00
8286;BME280;4181;43.416;24.598;2023-04-02T05:31:14;99133.09;;;14.14;100.00
8286;BME280;4181;43.416;24.598;2023-04-02T05:33:44;99134.13;;;14.18;100.00
8286;BME280;4181;43.416;24.598;2023-04-02T05:36:19;99121.44;;;14.22;100.00
8286;BME280;4181;43.416;24.598;2023-04-02T05:38:47;99144.97;;;14.28;100.00
8286;BME280;4181;43.416;24.598;2023-04-02T05:43:45;99141.75;;;14.39;100.00
8286;BME280;4181;43.416;24.598;2023-04-02T05:46:17;99139.59;;;14.36;100.00
8286;BME280;4181;43.416;24.598;2023-04-02T05:48:50;99139.22;;;14.43;100.00
8286;BME280;4181;43.416;24.598;2023-04-02T05:51:23;99135.88;;;14.46;100.00
8286;BME280;4181;43.416;24.598;2023-04-02T05:53:54;99151.56;;;14.59;100.00
8286;BME280;4181;43.416;24.598;2023-04-02T05:56:37;99147.34;;;14.80;100.00
8286;BME280;4181;43.416;24.598;2023-04-02T05:59:20;99137.31;;;15.30;100.00
8286;BME280;4181;43.416;24.598;2023-04-02T06:04:45;99141.03;;;15.74;100.00
8286;BME280;4181;43.416;24.598;2023-04-02T06:10:27;99131.47;;;16.29;100.00
8286;BME280;4181;43.416;24.598;2023-04-02T06:13:16;99131.34;;;16.79;100.00
8286;BME280;4181;43.416;24.598;2023-04-02T06:15:43;99121.81;;;16.85;100.00
8286;BME280;4181;43.416;24.598;2023-04-02T06:18:16;99118.53;;;17.13;100.00
8286;BME280;4181;43.416;24.598;2023-04-02T06:20:42;99112.97;;;17.44;100.00
8286;BME280;4181;43.416;24.598;2023-04-02T06:26:23;99086.56;;;18.03;100.00
8286;BME280;4181;43.416;24.598;2023-04-02T06:29:01;99100.72;;;18.01;100.00
8286;BME280;4181;43.416;24.598;2023-04-02T06:31:39;99100.38;;;18.28;100.00
8286;BME280;4181;43.416;24.598;2023-04-02T06:34:14;99104.09;;;18.49;100.00
8286;BME280;4181;43.416;24.598;2023-04-02T06:36:41;99086.81;;;18.69;100.00
8286;BME280;4181;43.416;24.598;2023-04-02T06:39:09;99097.69;;;18.74;100.00
8286;BME280;4181;43.416;24.598;2023-04-02T06:41:36;99103.28;;;18.57;100.00
8286;BME280;4181;43.416;24.598;2023-04-02T06:44:07;99102.78;;;18.64;100.00
8286;BME280;4181;43.416;24.598;2023-04-02T06:46:43;99094.56;;;18.84;100.00
8286;BME280;4181;43.416;24.598;2023-04-02T06:52:01;99076.28;;;19.67;100.00
8286;BME280;4181;43.416;24.598;2023-04-02T06:54:28;99079.72;;;19.85;100.00
8286;BME280;4181;43.416;24.598;2023-04-02T06:56:54;99071.50;;;20.18;100.00
8286;BME280;4181;43.416;24.598;2023-04-02T06:59:21;99073.00;;;20.48;100.00
8286;BME280;4181;43.416;24.598;2023-04-02T07:04:19;99081.53;;;20.87;100.00
8286;BME280;4181;43.416;24.598;2023-04-02T07:06:45;99062.63;;;21.13;100.00
8286;BME280;4181;43.416;24.598;2023-04-02T07:09:10;99068.63;;;21.27;100.00
8286;BME280;4181;43.416;24.598;2023-04-02T07:11:36;99076.69;;;21.57;100.00
8286;BME280;4181;43.416;24.598;2023-04-02T07:14:02;99076.34;;;21.58;100.00
8286;BME280;4181;43.416;24.598;2023-04-02T07:16:29;99086.63;;;21.82;100.00
8286;BME280;4181;43.416;24.598;2023-04-02T07:18:56;99087.44;;;21.82;100.00
8286;BME280;4181;43.416;24.598;2023-04-02T07:21:23;99081.53;;;21.84;100.00
8286;BME280;4181;43.416;24.598;2023-04-02T07:23:49;99095.66;;;21.91;100.00
8286;BME280;4181;43.416;24.598;2023-04-02T07:26:16;99086.78;;;22.13;100.00
8286;BME280;4181;43.416;24.598;2023-04-02T07:28:42;99078.06;;;22.26;100.00
8286;BME280;4181;43.416;24.598;2023-04-02T07:31:16;99082.66;;;22.34;100.00
8286;BME280;4181;43.416;24.598;2023-04-02T07:33:43;99087.94;;;22.12;100.00
8286;BME280;4181;43.416;24.598;2023-04-02T07:36:13;99096.72;;;22.14;100.00
8286;BME280;4181;43.416;24.598;2023-04-02T07:38:38;99100.78;;;22.16;100.00
8286;BME280;4181;43.416;24.598;2023-04-02T07:41:05;99085.00;;;22.20;100.00
8286;BME280;4181;43.416;24.598;2023-04-02T07:43:31;99086.41;;;22.42;100.00
8286;BME280;4181;43.416;24.598;2023-04-02T07:45:56;99083.72;;;22.58;100.00
8286;BME280;4181;43.416;24.598;2023-04-02T07:48:22;99076.31;;;22.93;100.00
8286;BME280;4181;43.416;24.598;2023-04-02T07:50:47;99072.66;;;23.04;100.00
8286;BME280;4181;43.416;24.598;2023-04-02T07:53:45;99071.47;;;23.05;100.00
8286;BME280;4181;43.416;24.598;2023-04-02T07:56:15;99076.22;;;22.89;100.00
8286;BME280;4181;43.416;24.598;2023-04-02T07:58:41;99068.06;;;23.12;100.00
8286;BME280;4181;43.416;24.598;2023-04-02T08:01:20;99059.47;;;23.32;100.00
8286;BME280;4181;43.416;24.598;2023-04-02T08:03:48;99070.88;;;23.27;100.00
8286;BME280;4181;43.416;24.598;2023-04-02T08:06:14;99073.81;;;23.34;100.00
8286;BME280;4181;43.416;24.598;2023-04-02T08:08:40;99077.72;;;23.30;100.00
8286;BME280;4181;43.416;24.598;2023-04-02T08:11:06;99066.97;;;23.47;100.00
8286;BME280;4181;43.416;24.598;2023-04-02T08:13:32;99076.19;;;23.67;100.00
8286;BME280;4181;43.416;24.598;2023-04-02T08:15:58;99070.97;;;23.65;100.00
8286;BME280;4181;43.416;24.598;2023-04-02T08:18:24;99076.44;;;23.77;100.00
8286;BME280;4181;43.416;24.598;2023-04-02T08:20:49;99077.53;;;23.73;100.00
8286;BME280;4181;43.416;24.598;2023-04-02T08:23:16;99089.34;;;23.51;100.00
8286;BME280;4181;43.416;24.598;2023-04-02T08:25:43;99090.47;;;23.65;100.00
8286;BME280;4181;43.416;24.598;2023-04-02T08:28:09;99080.88;;;23.63;100.00
8286;BME280;4181;43.416;24.598;2023-04-02T08:30:34;99079.53;;;23.57;100.00
8286;BME280;4181;43.416;24.598;2023-04-02T08:33:00;99076.34;;;23.74;100.00
8286;BME280;4181;43.416;24.598;2023-04-02T08:35:25;99077.91;;;23.91;100.00
8286;BME280;4181;43.416;24.598;2023-04-02T08:37:51;99084.34;;;23.75;100.00
8286;BME280;4181;43.416;24.598;2023-04-02T08:40:21;99083.88;;;23.73;100.00
8286;BME280;4181;43.416;24.598;2023-04-02T08:45:24;99085.81;;;23.69;100.00
8286;BME280;4181;43.416;24.598;2023-04-02T08:47:57;99084.91;;;23.65;100.00
8286;BME280;4181;43.416;24.598;2023-04-02T08:50:38;99088.41;;;23.97;100.00
8286;BME280;4181;43.416;24.598;2023-04-02T08:53:11;99088.97;;;23.87;100.00
8286;BME280;4181;43.416;24.598;2023-04-02T08:55:50;99096.69;;;23.94;100.00
8286;BME280;4181;43.416;24.598;2023-04-02T09:00:48;99090.53;;;24.38;100.00
8286;BME280;4181;43.416;24.598;2023-04-02T09:03:29;99075.44;;;24.62;100.00
8286;BME280;4181;43.416;24.598;2023-04-02T09:05:58;99087.22;;;24.33;100.00
8286;BME280;4181;43.416;24.598;2023-04-02T09:08:26;99098.38;;;24.33;100.00
8286;BME280;4181;43.416;24.598;2023-04-02T09:13:58;99114.91;;;23.72;100.00
8286;BME280;4181;43.416;24.598;2023-04-02T09:16:50;99109.84;;;23.77;100.00
8286;BME280;4181;43.416;24.598;2023-04-02T09:19:22;99106.06;;;23.86;100.00
8286;BME280;4181;43.416;24.598;2023-04-02T09:24:17;99126.31;;;23.20;100.00
8286;BME280;4181;43.416;24.598;2023-04-02T09:26:43;99123.38;;;23.13;100.00
8286;BME280;4181;43.416;24.598;2023-04-02T09:31:46;99111.44;;;23.28;100.00
8286;BME280;4181;43.416;24.598;2023-04-02T09:34:32;99105.84;;;23.59;100.00
8286;BME280;4181;43.416;24.598;2023-04-02T09:37:20;99109.91;;;23.97;100.00
8286;BME280;4181;43.416;24.598;2023-04-02T09:39:50;99105.31;;;23.89;100.00
8286;BME280;4181;43.416;24.598;2023-04-02T09:42:34;99106.41;;;23.65;100.00
8286;BME280;4181;43.416;24.598;2023-04-02T09:45:22;99103.63;;;23.49;100.00
8286;BME280;4181;43.416;24.598;2023-04-02T09:47:50;99115.13;;;23.32;100.00
8286;BME280;4181;43.416;24.598;2023-04-02T09:50:23;99109.47;;;23.60;100.00
8286;BME280;4181;43.416;24.598;2023-04-02T09:52:50;99112.63;;;23.27;100.00
8286;BME280;4181;43.416;24.598;2023-04-02T09:55:26;99139.44;;;22.61;100.00
8286;BME280;4181;43.416;24.598;2023-04-02T09:58:11;99126.41;;;22.65;100.00
8286;BME280;4181;43.416;24.598;2023-04-02T10:00:38;99143.19;;;22.41;100.00
8286;BME280;4181;43.416;24.598;2023-04-02T10:03:26;99139.47;;;22.37;100.00
8286;BME280;4181;43.416;24.598;2023-04-02T10:06:12;99129.75;;;22.43;100.00
8286;BME280;4181;43.416;24.598;2023-04-02T10:08:40;99134.91;;;22.17;100.00
8286;BME280;4181;43.416;24.598;2023-04-02T10:16:32;99145.16;;;21.89;100.00
8286;BME280;4181;43.416;24.598;2023-04-02T10:19:39;99154.66;;;21.64;100.00
8286;BME280;4181;43.416;24.598;2023-04-02T10:22:13;99146.91;;;21.69;100.00
8286;BME280;4181;43.416;24.598;2023-04-02T10:24:40;99147.13;;;21.64;100.00
8286;BME280;4181;43.416;24.598;2023-04-02T10:27:29;99149.44;;;21.38;100.00
8286;BME280;4181;43.416;24.598;2023-04-02T10:30:19;99147.13;;;21.16;100.00
8286;BME280;4181;43.416;24.598;2023-04-02T10:32:59;99150.03;;;21.19;100.00
8286;BME280;4181;43.416;24.598;2023-04-02T10:35:46;99146.44;;;21.19;100.00
8286;BME280;4181;43.416;24.598;2023-04-02T10:43:53;99145.41;;;21.60;100.00
8286;BME280;4181;43.416;24.598;2023-04-02T10:51:43;99137.72;;;22.05;100.00
8286;BME280;4181;43.416;24.598;2023-04-02T10:54:25;99159.88;;;21.77;100.00
8286;BME280;4181;43.416;24.598;2023-04-02T10:57:19;99139.63;;;21.89;100.00
8286;BME280;4181;43.416;24.598;2023-04-02T11:03:03;99107.88;;;22.69;100.00
8286;BME280;4181;43.416;24.598;2023-04-02T11:08:09;99107.13;;;23.00;100.00
8286;BME280;4181;43.416;24.598;2023-04-02T11:10:44;99104.97;;;23.24;100.00
8286;BME280;4181;43.416;24.598;2023-04-02T11:13:24;99099.25;;;23.33;100.00
8286;BME280;4181;43.416;24.598;2023-04-02T11:15:51;99110.88;;;23.23;100.00
8286;BME280;4181;43.416;24.598;2023-04-02T11:18:29;99112.94;;;22.95;100.00
8286;BME280;4181;43.416;24.598;2023-04-02T11:21:04;99116.22;;;22.69;100.00
8286;BME280;4181;43.416;24.598;2023-04-02T11:23:57;99109.88;;;22.84;100.00
8286;BME280;4181;43.416;24.598;2023-04-02T11:26:33;99119.13;;;22.88;100.00
8286;BME280;4181;43.416;24.598;2023-04-02T11:29:26;99108.56;;;23.09;100.00
8286;BME280;4181;43.416;24.598;2023-04-02T11:37:40;99120.81;;;22.77;100.00
8286;BME280;4181;43.416;24.598;2023-04-02T11:42:37;99109.41;;;22.82;100.00
8286;BME280;4181;43.416;24.598;2023-04-02T11:52:58;99097.84;;;22.80;100.00
8286;BME280;4181;43.416;24.598;2023-04-02T11:55:29;99107.53;;;22.86;100.00
8286;BME280;4181;43.416;24.598;2023-04-02T12:03:11;99092.66;;;22.94;100.00
8286;BME280;4181;43.416;24.598;2023-04-02T12:10:53;99090.13;;;23.20;100.00
8286;BME280;4181;43.416;24.598;2023-04-02T12:16:07;99092.31;;;23.11;100.00
8286;BME280;4181;43.416;24.598;2023-04-02T12:18:34;99085.56;;;22.97;100.00
8286;BME280;4181;43.416;24.598;2023-04-02T12:21:00;99098.50;;;23.05;100.00
8286;BME280;4181;43.416;24.598;2023-04-02T12:23:35;99104.16;;;22.93;100.00
8286;BME280;4181;43.416;24.598;2023-04-02T12:26:07;99095.41;;;22.63;100.00
8286;BME280;4181;43.416;24.598;2023-04-02T12:28:44;99105.50;;;22.55;100.00
8286;BME280;4181;43.416;24.598;2023-04-02T12:31:12;99099.34;;;22.50;100.00
8286;BME280;4181;43.416;24.598;2023-04-02T12:33:40;99101.00;;;22.51;100.00
8286;BME280;4181;43.416;24.598;2023-04-02T12:36:17;99092.88;;;22.58;100.00
8286;BME280;4181;43.416;24.598;2023-04-02T12:38:46;99104.81;;;22.19;100.00
8286;BME280;4181;43.416;24.598;2023-04-02T12:41:27;99099.97;;;22.16;100.00
8286;BME280;4181;43.416;24.598;2023-04-02T12:44:04;99092.94;;;22.34;100.00
8286;BME280;4181;43.416;24.598;2023-04-02T12:46:32;99088.16;;;22.46;100.00
8286;BME280;4181;43.416;24.598;2023-04-02T12:49:11;99089.41;;;22.49;100.00
8286;BME280;4181;43.416;24.598;2023-04-02T12:51:44;99085.44;;;22.62;100.00
8286;BME280;4181;43.416;24.598;2023-04-02T12:54:15;99075.78;;;22.87;100.00
8286;BME280;4181;43.416;24.598;2023-04-02T12:56:42;99075.25;;;22.97;100.00
8286;BME280;4181;43.416;24.598;2023-04-02T12:59:44;99083.78;;;23.04;100.00
8286;BME280;4181;43.416;24.598;2023-04-02T13:02:24;99079.72;;;23.17;100.00
8286;BME280;4181;43.416;24.598;2023-04-02T13:04:55;99083.50;;;23.25;100.00
8286;BME280;4181;43.416;24.598;2023-04-02T13:07:23;99068.25;;;23.34;100.00
8286;BME280;4181;43.416;24.598;2023-04-02T13:10:00;99076.59;;;23.19;100.00
8286;BME280;4181;43.416;24.598;2023-04-02T13:12:36;99080.91;;;23.01;100.00
8286;BME280;4181;43.416;24.598;2023-04-02T13:15:06;99090.03;;;23.17;100.00
8286;BME280;4181;43.416;24.598;2023-04-02T13:17:43;99082.69;;;23.09;100.00
8286;BME280;4181;43.416;24.598;2023-04-02T13:22:53;99081.25;;;22.99;100.00
8286;BME280;4181;43.416;24.598;2023-04-02T13:25:26;99088.69;;;22.80;100.00
8286;BME280;4181;43.416;24.598;2023-04-02T13:27:52;99090.72;;;22.67;100.00
8286;BME280;4181;43.416;24.598;2023-04-02T13:30:22;99090.28;;;22.65;100.00
8286;BME280;4181;43.416;24.598;2023-04-02T13:32:48;99086.81;;;22.68;100.00
8286;BME280;4181;43.416;24.598;2023-04-02T13:35:14;99080.00;;;22.81;100.00
8286;BME280;4181;43.416;24.598;2023-04-02T13:37:39;99084.56;;;22.89;100.00
8286;BME280;4181;43.416;24.598;2023-04-02T13:40:05;99091.38;;;22.76;100.00
8286;BME280;4181;43.416;24.598;2023-04-02T13:42:31;99083.03;;;22.76;100.00
8286;BME280;4181;43.416;24.598;2023-04-02T13:44:56;99078.63;;;22.75;100.00
8286;BME280;4181;43.416;24.598;2023-04-02T13:47:22;99087.13;;;22.67;100.00
8286;BME280;4181;43.416;24.598;2023-04-02T13:49:47;99092.78;;;22.70;100.00
8286;BME280;4181;43.416;24.598;2023-04-02T13:52:13;99083.03;;;22.76;100.00
8286;BME280;4181;43.416;24.598;2023-04-02T13:54:44;99077.84;;;22.75;100.00
8286;BME280;4181;43.416;24.598;2023-04-02T13:57:10;99075.22;;;22.66;100.00
8286;BME280;4181;43.416;24.598;2023-04-02T13:59:36;99086.63;;;22.49;100.00
8286;BME280;4181;43.416;24.598;2023-04-02T14:02:05;99082.81;;;22.53;100.00
8286;BME280;4181;43.416;24.598;2023-04-02T14:04:37;99073.19;;;22.51;100.00
8286;BME280;4181;43.416;24.598;2023-04-02T14:07:09;99081.69;;;22.42;100.00
8286;BME280;4181;43.416;24.598;2023-04-02T14:21:13;99086.56;;;22.06;100.00
8286;BME280;4181;43.416;24.598;2023-04-02T14:24:17;99090.31;;;21.98;100.00
8286;BME280;4181;43.416;24.598;2023-04-02T14:33:06;99089.19;;;21.75;100.00
8286;BME280;4181;43.416;24.598;2023-04-02T14:35:37;99095.06;;;21.73;100.00
8286;BME280;4181;43.416;24.598;2023-04-02T14:38:17;99099.47;;;21.74;100.00
8286;BME280;4181;43.416;24.598;2023-04-02T14:40:56;99105.63;;;21.68;100.00
8286;BME280;4181;43.416;24.598;2023-04-02T14:43:24;99107.81;;;21.62;100.00
8286;BME280;4181;43.416;24.598;2023-04-02T14:46:05;99104.47;;;21.45;100.00
8286;BME280;4181;43.416;24.598;2023-04-02T14:49:00;99099.72;;;21.33;100.00
8286;BME280;4181;43.416;24.598;2023-04-02T14:51:47;99094.97;;;21.33;100.00
8286;BME280;4181;43.416;24.598;2023-04-02T15:05:09;99113.72;;;21.24;100.00
8286;BME280;4181;43.416;24.598;2023-04-02T15:07:38;99110.34;;;21.07;100.00
8286;BME280;4181;43.416;24.598;2023-04-02T15:10:25;99109.09;;;21.04;100.00
8286;BME280;4181;43.416;24.598;2023-04-02T15:12:54;99119.72;;;21.14;100.00
8286;BME280;4181;43.416;24.598;2023-04-02T15:15:48;99107.69;;;21.10;100.00
8286;BME280;4181;43.416;24.598;2023-04-02T15:18:17;99110.56;;;21.02;100.00
8286;BME280;4181;43.416;24.598;2023-04-02T15:21:40;99110.22;;;21.03;100.00
8286;BME280;4181;43.416;24.598;2023-04-02T15:24:57;99117.28;;;21.01;100.00
8286;BME280;4181;43.416;24.598;2023-04-02T15:29:43;99120.81;;;20.89;100.00
8286;BME280;4181;43.416;24.598;2023-04-02T15:59:25;99138.16;;;20.33;100.00
8286;BME280;4181;43.416;24.598;2023-04-02T16:09:56;99158.66;;;20.11;100.00
8286;BME280;4181;43.416;24.598;2023-04-02T16:12:24;99162.47;;;20.07;100.00
8286;BME280;4181;43.416;24.598;2023-04-02T16:14:58;99165.16;;;19.95;100.00
8286;BME280;4181;43.416;24.598;2023-04-02T16:17:37;99172.63;;;19.74;100.00
8286;BME280;4181;43.416;24.598;2023-04-02T16:20:21;99168.69;;;19.75;100.00
8286;BME280;4181;43.416;24.598;2023-04-02T16:23:13;99176.72;;;19.68;100.00
8286;BME280;4181;43.416;24.598;2023-04-02T16:26:01;99176.44;;;19.61;100.00
8286;BME280;4181;43.416;24.598;2023-04-02T16:31:54;99183.81;;;19.48;100.00
8286;BME280;4181;43.416;24.598;2023-04-02T16:37:29;99193.94;;;19.44;100.00
8286;BME280;4181;43.416;24.598;2023-04-02T16:40:28;99204.84;;;19.41;100.00
8286;BME280;4181;43.416;24.598;2023-04-02T16:51:13;99209.53;;;18.85;100.00
8286;BME280;4181;43.416;24.598;2023-04-02T16:56:22;99214.25;;;18.68;100.00
8286;BME280;4181;43.416;24.598;2023-04-02T17:05:11;99235.72;;;18.45;100.00
8286;BME280;4181;43.416;24.598;2023-04-02T17:07:53;99235.53;;;18.33;100.00
8286;BME280;4181;43.416;24.598;2023-04-02T17:15:29;99234.06;;;18.27;100.00
8286;BME280;4181;43.416;24.598;2023-04-02T17:17:59;99242.78;;;18.04;100.00
8286;BME280;4181;43.416;24.598;2023-04-02T17:20:25;99245.41;;;18.09;100.00
8286;BME280;4181;43.416;24.598;2023-04-02T17:22:52;99251.25;;;18.07;100.00